createdAt,value
2018-12-14T00:02:25.383Z,16.83
2018-12-14T00:04:53.654Z,14.80
2018-12-14T00:07:21.922Z,15.27
2018-12-14T00:09:50.312Z,15.70
2018-12-14T00:12:18.710Z,12.97
2018-12-14T00:14:47.191Z,13.77
2018-12-14T00:17:18.063Z,12.80
2018-12-14T00:19:46.345Z,12.90
2018-12-14T00:22:14.623Z,13.10
2018-12-14T00:24:42.902Z,12.07
2018-12-14T00:27:11.182Z,15.30
2018-12-14T00:29:39.743Z,14.80
2018-12-14T00:32:15.073Z,13.57
2018-12-14T00:34:43.371Z,14.63
2018-12-14T00:37:11.664Z,14.10
2018-12-14T00:39:39.974Z,15.07
2018-12-14T00:42:08.320Z,14.73
2018-12-14T00:44:36.743Z,12.13
2018-12-14T00:47:05.090Z,13.53
2018-12-14T00:49:33.390Z,13.97
2018-12-14T00:52:01.741Z,14.47
2018-12-14T00:54:30.110Z,12.77
2018-12-14T00:56:58.456Z,15.00
2018-12-14T00:59:27.113Z,14.30
2018-12-14T01:02:02.117Z,11.90
2018-12-14T01:04:30.582Z,12.40
2018-12-14T01:06:58.854Z,14.67
2018-12-14T01:09:27.338Z,11.47
2018-12-14T01:11:58.299Z,12.83
2018-12-14T01:14:26.172Z,12.97
2018-12-14T01:16:54.445Z,12.00
2018-12-14T01:19:22.751Z,12.30
2018-12-14T01:21:51.022Z,13.87
2018-12-14T01:24:19.303Z,14.20
2018-12-14T01:26:47.578Z,12.67
2018-12-14T01:29:15.863Z,15.07
2018-12-14T01:31:44.141Z,12.87
2018-12-14T01:34:12.436Z,15.07
2018-12-14T01:36:40.798Z,15.67
2018-12-14T01:39:09.289Z,13.40
2018-12-14T01:41:37.554Z,15.47
2018-12-14T01:44:05.827Z,13.93
2018-12-14T01:46:34.175Z,12.10
2018-12-14T01:49:02.556Z,12.57
2018-12-14T01:51:31.395Z,12.90
2018-12-14T01:53:59.762Z,12.03
2018-12-14T01:56:28.142Z,12.70
2018-12-14T01:58:56.487Z,11.60
2018-12-14T02:01:24.855Z,12.40
2018-12-14T02:03:53.125Z,14.87
2018-12-14T02:06:21.400Z,14.57
2018-12-14T02:08:49.682Z,12.93
2018-12-14T02:11:18.212Z,12.83
2018-12-14T02:13:46.592Z,15.47
2018-12-14T02:16:14.877Z,14.77
2018-12-14T02:18:43.146Z,12.23
2018-12-14T02:21:11.430Z,11.17
2018-12-14T02:23:39.790Z,13.97
2018-12-14T02:26:08.296Z,14.73
2018-12-14T02:28:36.604Z,14.47
2018-12-14T02:31:04.992Z,12.50
2018-12-14T02:33:33.397Z,14.37
2018-12-14T02:36:01.694Z,13.77
2018-12-14T02:38:29.982Z,11.93
2018-12-14T02:40:58.289Z,12.70
2018-12-14T02:43:26.764Z,11.63
2018-12-14T02:45:55.167Z,14.40
2018-12-14T02:48:23.418Z,13.43
2018-12-14T02:50:51.701Z,13.30
2018-12-14T02:53:19.992Z,12.17
2018-12-14T02:55:48.368Z,11.47
2018-12-14T02:58:16.638Z,12.20
2018-12-14T03:00:44.915Z,12.20
2018-12-14T03:03:13.180Z,11.30
2018-12-14T03:05:41.467Z,12.50
2018-12-14T03:08:09.860Z,13.77
2018-12-14T03:10:38.147Z,12.83
2018-12-14T03:13:06.404Z,14.80
2018-12-14T03:15:34.750Z,11.67
2018-12-14T03:18:03.010Z,12.93
2018-12-14T03:20:31.302Z,11.97
2018-12-14T03:22:59.567Z,12.77
2018-12-14T03:25:27.933Z,12.80
2018-12-14T03:27:56.250Z,14.00
2018-12-14T03:30:24.531Z,12.93
2018-12-14T03:32:52.910Z,14.13
2018-12-14T03:35:21.178Z,13.07
2018-12-14T03:37:49.455Z,12.87
2018-12-14T03:40:17.734Z,12.93
2018-12-14T03:42:45.978Z,13.37
2018-12-14T03:45:14.249Z,11.93
2018-12-14T03:47:42.502Z,13.13
2018-12-14T03:50:10.892Z,13.20
2018-12-14T03:52:39.188Z,12.47
2018-12-14T03:55:07.609Z,10.43
2018-12-14T03:57:35.891Z,12.30
2018-12-14T04:00:05.273Z,10.83
2018-12-14T04:02:33.533Z,14.17
2018-12-14T04:05:01.859Z,10.67
2018-12-14T04:07:30.111Z,13.43
2018-12-14T04:09:58.396Z,13.97
2018-12-14T04:12:26.775Z,14.03
2018-12-14T04:15:13.818Z,13.80
2018-12-14T04:17:46.086Z,12.97
2018-12-14T04:20:19.573Z,13.47
2018-12-14T04:22:51.811Z,12.77
2018-12-14T04:25:25.223Z,13.57
2018-12-14T04:27:54.513Z,12.80
2018-12-14T04:30:22.775Z,12.83
2018-12-14T04:32:51.022Z,11.07
2018-12-14T04:35:19.292Z,12.17
2018-12-14T04:37:47.560Z,12.17
2018-12-14T04:40:15.839Z,13.17
2018-12-14T04:42:48.742Z,12.07
2018-12-14T04:45:14.471Z,13.23
2018-12-14T04:47:42.750Z,13.77
2018-12-14T04:50:11.011Z,14.23
2018-12-14T04:52:39.426Z,13.17
2018-12-14T04:55:07.721Z,10.53
2018-12-14T04:57:36.027Z,13.70
2018-12-14T05:00:05.296Z,11.47
2018-12-14T05:02:33.558Z,11.90
2018-12-14T05:05:01.861Z,14.53
2018-12-14T05:07:30.172Z,14.13
2018-12-14T05:09:58.523Z,15.60
2018-12-14T05:12:26.812Z,16.90
2018-12-14T05:14:55.070Z,14.40
2018-12-14T05:17:23.346Z,13.17
2018-12-14T05:19:51.617Z,14.87
2018-12-14T05:22:19.908Z,16.23
2018-12-14T05:24:48.172Z,13.70
2018-12-14T05:27:16.449Z,14.33
2018-12-14T05:29:44.802Z,13.30
2018-12-14T05:32:13.110Z,10.00
2018-12-14T05:34:41.389Z,11.50
2018-12-14T05:37:09.799Z,12.13
2018-12-14T05:39:38.093Z,13.97
2018-12-14T05:42:06.372Z,12.67
2018-12-14T05:44:34.646Z,12.57
2018-12-14T05:47:03.050Z,12.30
2018-12-14T05:49:31.329Z,11.70
2018-12-14T05:51:59.639Z,13.23
2018-12-14T05:54:27.981Z,13.40
2018-12-14T05:56:56.568Z,11.30
2018-12-14T05:59:24.930Z,10.33
2018-12-14T06:01:53.216Z,12.07
2018-12-14T06:04:21.476Z,12.00
2018-12-14T06:06:49.889Z,12.93
2018-12-14T06:09:18.246Z,12.63
2018-12-14T06:11:46.565Z,12.43
2018-12-14T06:14:14.906Z,13.67
2018-12-14T06:16:43.184Z,14.53
2018-12-14T06:19:11.503Z,13.67
2018-12-14T06:21:39.977Z,13.50
2018-12-14T06:24:08.418Z,12.93
2018-12-14T06:26:36.752Z,13.97
2018-12-14T06:29:05.190Z,12.63
2018-12-14T06:31:33.504Z,12.10
2018-12-14T06:34:01.844Z,13.17
2018-12-14T06:36:30.795Z,14.10
2018-12-14T06:38:59.224Z,13.60
2018-12-14T06:41:27.509Z,14.03
2018-12-14T06:43:55.889Z,13.10
2018-12-14T06:46:24.263Z,14.40
2018-12-14T06:48:52.764Z,14.57
2018-12-14T06:51:21.414Z,13.47
2018-12-14T06:53:49.821Z,14.60
2018-12-14T06:56:18.195Z,14.37
2018-12-14T06:58:46.684Z,14.13
2018-12-14T07:01:15.042Z,13.83
2018-12-14T07:03:43.350Z,14.23
2018-12-14T07:06:11.877Z,14.23
2018-12-14T07:08:40.189Z,12.60
2018-12-14T07:11:08.884Z,13.73
2018-12-14T07:13:37.246Z,15.60
2018-12-14T07:16:05.630Z,14.57
2018-12-14T07:18:34.094Z,11.73
2018-12-14T07:21:03.384Z,12.37
2018-12-14T07:23:31.687Z,13.33
2018-12-14T07:26:00.065Z,14.03
2018-12-14T07:28:28.474Z,14.47
2018-12-14T07:30:56.852Z,15.30
2018-12-14T07:33:25.278Z,15.27
2018-12-14T07:35:53.567Z,17.27
2018-12-14T07:38:28.749Z,15.43
2018-12-14T07:40:57.081Z,18.03
2018-12-14T07:43:28.278Z,17.17
2018-12-14T07:45:55.802Z,17.10
2018-12-14T07:48:24.315Z,14.33
2018-12-14T07:50:52.747Z,13.80
2018-12-14T07:53:21.039Z,18.53
2018-12-14T07:55:49.454Z,14.70
2018-12-14T07:58:17.786Z,21.90
2018-12-14T08:00:46.277Z,17.43
2018-12-14T08:03:16.093Z,14.33
2018-12-14T08:05:44.589Z,14.43
2018-12-14T08:08:12.943Z,16.27
2018-12-14T08:10:41.377Z,14.90
2018-12-14T08:13:09.910Z,14.40
2018-12-14T08:15:38.233Z,14.13
2018-12-14T08:18:06.688Z,15.37
2018-12-14T08:20:35.043Z,13.17
2018-12-14T08:23:03.375Z,13.57
2018-12-14T08:25:31.770Z,14.87
2018-12-14T08:28:00.192Z,13.87
2018-12-14T08:30:28.699Z,13.47
2018-12-14T08:32:57.061Z,13.70
2018-12-14T08:35:25.419Z,15.00
2018-12-14T08:37:53.742Z,13.60
2018-12-14T08:40:22.096Z,14.77
2018-12-14T08:42:50.541Z,13.53
2018-12-14T08:45:18.845Z,12.73
2018-12-14T08:47:47.612Z,14.10
2018-12-14T08:50:17.288Z,14.67
2018-12-14T08:52:46.405Z,14.63
2018-12-14T08:55:14.742Z,13.27
2018-12-14T08:57:43.036Z,13.87
2018-12-14T09:00:11.362Z,16.03
2018-12-14T09:02:39.630Z,14.67
2018-12-14T09:05:08.335Z,13.13
2018-12-14T09:07:36.594Z,12.97
2018-12-14T09:10:06.237Z,13.37
2018-12-14T09:12:34.489Z,13.97
2018-12-14T09:15:02.778Z,14.27
2018-12-14T09:17:31.054Z,13.73
2018-12-14T09:19:59.490Z,15.80
2018-12-14T09:22:27.829Z,15.97
2018-12-14T09:24:56.183Z,14.17
2018-12-14T09:27:24.538Z,13.73
2018-12-14T09:29:52.824Z,13.57
2018-12-14T09:32:21.118Z,12.10
2018-12-14T09:34:49.636Z,11.73
2018-12-14T09:37:17.950Z,14.00
2018-12-14T09:39:46.195Z,12.67
2018-12-14T09:42:14.472Z,14.77
2018-12-14T09:44:42.748Z,14.83
2018-12-14T09:47:11.035Z,15.20
2018-12-14T09:49:39.332Z,12.20
2018-12-14T09:52:07.873Z,13.73
2018-12-14T09:54:36.235Z,14.70
2018-12-14T09:57:04.613Z,14.90
2018-12-14T09:59:32.994Z,13.93
2018-12-14T10:02:01.330Z,13.63
2018-12-14T10:04:29.638Z,13.07
2018-12-14T10:06:58.029Z,12.40
2018-12-14T10:09:26.384Z,14.43
2018-12-14T10:11:55.313Z,12.93
2018-12-14T10:14:24.013Z,13.23
2018-12-14T10:16:53.446Z,13.40
2018-12-14T10:19:21.743Z,14.40
2018-12-14T10:21:50.047Z,12.50
2018-12-14T10:24:18.427Z,14.87
2018-12-14T10:26:46.683Z,14.00
2018-12-14T10:29:15.050Z,14.50
2018-12-14T10:31:43.357Z,12.50
2018-12-14T10:34:11.740Z,12.03
2018-12-14T10:36:40.166Z,13.17
2018-12-14T10:39:08.697Z,13.20
2018-12-14T10:41:37.076Z,10.87
2018-12-14T10:44:07.579Z,13.57
2018-12-14T10:46:35.786Z,14.73
2018-12-14T10:49:04.291Z,14.60
2018-12-14T10:51:32.910Z,13.03
2018-12-14T10:54:01.218Z,10.90
2018-12-14T10:56:29.703Z,15.00
2018-12-14T10:58:58.074Z,12.03
2018-12-14T11:01:31.674Z,12.27
2018-12-14T11:04:00.073Z,12.17
2018-12-14T11:06:28.465Z,11.20
2018-12-14T11:08:56.929Z,11.10
2018-12-14T11:11:25.278Z,11.10
2018-12-14T11:13:53.679Z,12.87
2018-12-14T11:16:22.092Z,11.00
2018-12-14T11:18:50.417Z,12.03
2018-12-14T11:21:19.015Z,12.00
2018-12-14T11:23:47.391Z,11.73
2018-12-14T11:26:15.760Z,11.13
2018-12-14T11:28:45.077Z,11.33
2018-12-14T11:31:13.455Z,11.60
2018-12-14T11:33:41.850Z,13.43
2018-12-14T11:36:10.351Z,13.63
2018-12-14T11:38:38.780Z,12.33
2018-12-14T11:41:07.325Z,10.43
2018-12-14T11:43:35.647Z,12.00
2018-12-14T11:46:05.021Z,11.43
2018-12-14T11:48:33.404Z,9.57
2018-12-14T11:51:01.878Z,10.67
2018-12-14T11:53:30.179Z,12.33
2018-12-14T11:55:58.445Z,11.00
2018-12-14T11:58:27.331Z,12.93
2018-12-14T12:00:55.974Z,12.40
2018-12-14T12:03:24.294Z,10.17
2018-12-14T12:05:52.607Z,10.20
2018-12-14T12:08:21.076Z,12.07
2018-12-14T12:10:49.389Z,11.67
2018-12-14T12:13:17.785Z,13.10
2018-12-14T12:15:46.342Z,14.30
2018-12-14T12:18:14.673Z,14.30
2018-12-14T12:20:43.083Z,12.93
2018-12-14T12:23:11.527Z,12.53
2018-12-14T12:25:39.945Z,14.53
2018-12-14T12:28:08.319Z,19.70
2018-12-14T12:30:36.715Z,16.27
2018-12-14T12:33:05.005Z,21.47
2018-12-14T12:35:33.275Z,16.30
2018-12-14T12:38:01.567Z,13.67
2018-12-14T12:40:29.845Z,11.27
2018-12-14T12:42:58.117Z,14.03
2018-12-14T12:45:26.488Z,13.17
2018-12-14T12:47:54.792Z,14.60
2018-12-14T12:50:23.074Z,11.23
2018-12-14T12:52:51.378Z,14.67
2018-12-14T12:55:19.639Z,12.87
2018-12-14T12:57:48.013Z,12.80
2018-12-14T13:00:16.271Z,11.47
2018-12-14T13:02:44.534Z,11.33
2018-12-14T13:05:12.904Z,14.60
2018-12-14T13:07:41.162Z,15.57
2018-12-14T13:10:09.773Z,15.53
2018-12-14T13:12:38.057Z,13.17
2018-12-14T13:15:06.936Z,16.43
2018-12-14T13:17:35.190Z,13.80
2018-12-14T13:20:04.940Z,15.63
2018-12-14T13:22:33.291Z,12.93
2018-12-14T13:25:03.001Z,10.57
2018-12-14T13:27:31.372Z,13.60
2018-12-14T13:29:59.709Z,14.10
2018-12-14T13:32:28.052Z,17.93
2018-12-14T13:34:56.383Z,16.27
2018-12-14T13:37:24.884Z,13.33
2018-12-14T13:39:53.302Z,15.07
2018-12-14T13:42:21.738Z,12.53
2018-12-14T13:44:53.177Z,15.23
2018-12-14T13:47:21.729Z,12.63
2018-12-14T13:49:50.226Z,13.90
2018-12-14T13:52:18.547Z,14.33
2018-12-14T13:54:47.652Z,13.87
2018-12-14T13:57:17.129Z,15.00
2018-12-14T13:59:45.429Z,14.37
2018-12-14T14:02:14.521Z,14.33
2018-12-14T14:04:42.867Z,13.30
2018-12-14T14:07:11.164Z,13.07
2018-12-14T14:09:41.797Z,12.77
2018-12-14T14:12:10.363Z,14.63
2018-12-14T14:14:38.689Z,14.50
2018-12-14T14:17:08.336Z,14.37
2018-12-14T14:19:36.618Z,13.37
2018-12-14T14:22:04.913Z,12.90
2018-12-14T14:24:33.310Z,12.90
2018-12-14T14:27:01.739Z,15.07
2018-12-14T14:29:30.030Z,15.47
2018-12-14T14:31:58.394Z,18.07
2018-12-14T14:34:26.694Z,15.57
2018-12-14T14:36:58.088Z,13.00
2018-12-14T14:39:26.435Z,11.97
2018-12-14T14:41:54.855Z,14.73
2018-12-14T14:44:23.287Z,12.93
2018-12-14T14:46:51.569Z,15.73
2018-12-14T14:49:20.016Z,13.60
2018-12-14T14:51:48.720Z,10.37
2018-12-14T14:54:17.164Z,14.10
2018-12-14T14:56:45.505Z,13.43
2018-12-14T14:59:13.852Z,13.17
2018-12-14T15:01:42.173Z,12.27
2018-12-14T15:04:10.565Z,11.30
2018-12-14T15:06:38.997Z,13.10
2018-12-14T15:09:08.835Z,12.53
2018-12-14T15:11:37.226Z,10.67
2018-12-14T15:14:05.708Z,12.27
2018-12-14T15:16:34.070Z,12.50
2018-12-14T15:19:02.591Z,13.30
2018-12-14T15:21:31.017Z,11.07
2018-12-14T15:23:59.409Z,10.67
2018-12-14T15:26:27.670Z,11.13
2018-12-14T15:28:55.976Z,14.00
2018-12-14T15:31:24.333Z,11.87
2018-12-14T15:33:52.619Z,10.83
2018-12-14T15:36:21.080Z,10.83
2018-12-14T15:38:49.376Z,10.20
2018-12-14T15:41:17.742Z,11.03
2018-12-14T15:43:46.278Z,10.13
2018-12-14T15:46:14.701Z,9.60
2018-12-14T15:48:42.989Z,10.67
2018-12-14T15:51:11.279Z,10.03
2018-12-14T15:53:39.582Z,10.37
2018-12-14T15:56:08.289Z,9.27
2018-12-14T15:58:36.662Z,10.00
2018-12-14T16:01:04.995Z,11.13
2018-12-14T16:03:34.263Z,9.90
2018-12-14T16:06:02.606Z,12.13
2018-12-14T16:08:30.967Z,12.37
2018-12-14T16:10:59.318Z,14.17
2018-12-14T16:13:27.752Z,10.40
2018-12-14T16:15:56.207Z,10.97
2018-12-14T16:18:24.744Z,10.57
2018-12-14T16:20:53.188Z,9.73
2018-12-14T16:23:21.538Z,10.13
2018-12-14T16:25:50.047Z,11.77
2018-12-14T16:28:18.471Z,10.47
2018-12-14T16:30:46.774Z,13.77
2018-12-14T16:33:15.255Z,10.63
2018-12-14T16:35:43.725Z,9.90
2018-12-14T16:38:12.030Z,11.50
2018-12-14T16:40:40.390Z,10.90
2018-12-14T16:43:08.964Z,8.53
2018-12-14T16:45:37.391Z,8.57
2018-12-14T16:48:05.843Z,11.13
2018-12-14T16:50:34.242Z,8.57
2018-12-14T16:53:02.823Z,9.00
2018-12-14T16:55:31.257Z,9.87
2018-12-14T16:57:59.558Z,9.57
2018-12-14T17:00:27.934Z,8.63
2018-12-14T17:02:56.516Z,8.47
2018-12-14T17:05:24.935Z,8.37
2018-12-14T17:07:53.311Z,8.63
2018-12-14T17:10:21.688Z,8.57
2018-12-14T17:12:50.035Z,6.90
2018-12-14T17:15:18.356Z,7.67
2018-12-14T17:17:46.694Z,8.53
2018-12-14T17:20:15.076Z,9.03
2018-12-14T17:22:43.499Z,7.30
2018-12-14T17:25:12.831Z,7.03
2018-12-14T17:27:41.248Z,7.10
2018-12-14T17:30:09.793Z,7.07
2018-12-14T17:32:38.086Z,8.93
2018-12-14T17:35:06.704Z,9.10
2018-12-14T17:37:35.043Z,7.60
2018-12-14T17:40:03.451Z,8.30
2018-12-14T17:42:31.942Z,9.03
2018-12-14T17:45:00.227Z,9.63
2018-12-14T17:47:28.595Z,8.57
2018-12-14T17:49:57.056Z,10.87
2018-12-14T17:52:25.449Z,10.10
2018-12-14T17:54:53.842Z,9.80
2018-12-14T17:57:22.201Z,8.83
2018-12-14T17:59:50.573Z,7.70
2018-12-14T18:02:18.837Z,8.80
2018-12-14T18:04:47.169Z,8.87
2018-12-14T18:07:16.521Z,8.03
2018-12-14T18:09:44.853Z,9.07
2018-12-14T18:12:13.165Z,8.07
2018-12-14T18:14:41.630Z,9.03
2018-12-14T18:17:09.930Z,8.33
2018-12-14T18:19:38.227Z,7.90
2018-12-14T18:22:06.689Z,7.37
2018-12-14T18:24:35.214Z,9.07
2018-12-14T18:27:04.662Z,8.90
2018-12-14T18:29:33.874Z,7.50
2018-12-14T18:32:02.162Z,9.87
2018-12-14T18:34:30.556Z,7.10
2018-12-14T18:36:58.949Z,7.93
2018-12-14T18:39:27.308Z,8.57
2018-12-14T18:41:55.688Z,9.00
2018-12-14T18:44:23.967Z,10.00
2018-12-14T18:46:52.300Z,9.27
2018-12-14T18:49:20.650Z,9.60
2018-12-14T18:51:48.965Z,8.67
2018-12-14T18:54:17.272Z,7.47
2018-12-14T18:56:45.664Z,9.07
2018-12-14T18:59:14.374Z,12.93
2018-12-14T19:01:43.210Z,18.00
2018-12-14T19:04:11.718Z,20.20
2018-12-14T19:06:40.154Z,18.07
2018-12-14T19:09:08.732Z,14.97
2018-12-14T19:11:37.186Z,13.30
2018-12-14T19:14:05.823Z,14.87
2018-12-14T19:16:34.131Z,14.20
2018-12-14T19:19:02.499Z,14.53
2018-12-14T19:21:30.898Z,14.70
2018-12-14T19:23:59.256Z,12.00
2018-12-14T19:26:27.641Z,15.53
2018-12-14T19:28:56.158Z,16.83
2018-12-14T19:31:24.518Z,14.23
2018-12-14T19:33:52.905Z,11.87
2018-12-14T19:36:21.254Z,13.63
2018-12-14T19:38:49.634Z,11.50
2018-12-14T19:41:18.030Z,11.47
2018-12-14T19:43:46.425Z,14.73
2018-12-14T19:46:14.767Z,15.33
2018-12-14T19:48:43.239Z,14.67
2018-12-14T19:51:11.642Z,12.30
2018-12-14T19:53:40.340Z,13.80
2018-12-14T19:56:08.734Z,14.63
2018-12-14T19:58:37.053Z,12.37
2018-12-14T20:01:05.349Z,14.40
2018-12-14T20:03:33.727Z,14.87
2018-12-14T20:06:02.116Z,15.90
2018-12-14T20:08:31.512Z,12.17
2018-12-14T20:10:59.893Z,13.67
2018-12-14T20:13:28.409Z,14.37
2018-12-14T20:15:57.722Z,15.30
2018-12-14T20:18:26.330Z,14.27
2018-12-14T20:20:54.678Z,13.23
2018-12-14T20:23:23.032Z,14.03
2018-12-14T20:25:51.392Z,13.10
2018-12-14T20:28:19.823Z,12.00
2018-12-14T20:30:48.272Z,10.30
2018-12-14T20:33:16.639Z,14.00
2018-12-14T20:35:45.042Z,10.90
2018-12-14T20:38:13.474Z,10.57
2018-12-14T20:40:41.814Z,9.33
2018-12-14T20:43:10.152Z,11.13
2018-12-14T20:45:38.423Z,11.00
2018-12-14T20:48:06.805Z,10.13
2018-12-14T20:50:35.191Z,9.17
2018-12-14T20:53:03.642Z,8.07
2018-12-14T20:55:31.938Z,8.60
2018-12-14T20:58:00.330Z,10.90
2018-12-14T21:00:28.671Z,13.23
2018-12-14T21:02:56.951Z,10.83
2018-12-14T21:05:25.398Z,9.77
2018-12-14T21:07:53.757Z,10.10
2018-12-14T21:10:22.250Z,13.73
2018-12-14T21:12:50.584Z,11.70
2018-12-14T21:15:18.993Z,12.03
2018-12-14T21:17:47.408Z,12.03
2018-12-14T21:20:15.796Z,10.30
2018-12-14T21:22:45.004Z,9.83
2018-12-14T21:25:13.417Z,12.50
2018-12-14T21:27:42.051Z,11.57
2018-12-14T21:30:10.616Z,10.37
2018-12-14T21:32:38.932Z,11.87
2018-12-14T21:35:07.464Z,12.40
2018-12-14T21:37:35.828Z,10.73
2018-12-14T21:40:04.660Z,9.73
2018-12-14T21:42:34.349Z,14.13
2018-12-14T21:45:03.231Z,13.13
2018-12-14T21:47:31.609Z,20.13
2018-12-14T21:50:00.045Z,14.10
2018-12-14T21:52:29.380Z,13.57
2018-12-14T21:54:57.755Z,16.30
2018-12-14T21:57:26.130Z,12.00
2018-12-14T21:59:54.517Z,41.20
2018-12-14T22:02:22.877Z,20.07
2018-12-14T22:04:52.668Z,11.53
2018-12-14T22:07:20.998Z,9.33
2018-12-14T22:09:49.326Z,6.83
2018-12-14T22:12:17.623Z,7.53
2018-12-14T22:14:45.999Z,7.07
2018-12-14T22:17:14.326Z,7.87
2018-12-14T22:19:45.674Z,7.50
2018-12-14T22:22:13.992Z,7.50
2018-12-14T22:24:42.409Z,7.23
2018-12-14T22:27:10.881Z,7.90
2018-12-14T22:29:39.287Z,8.50
2018-12-14T22:32:07.632Z,6.53
2018-12-14T22:34:36.030Z,6.93
2018-12-14T22:37:04.306Z,7.67
2018-12-14T22:39:32.975Z,7.27
2018-12-14T22:42:08.295Z,6.90
2018-12-14T22:44:36.688Z,7.90
2018-12-14T22:47:05.098Z,7.43
2018-12-14T22:49:33.522Z,8.10
2018-12-14T22:52:01.930Z,7.20
2018-12-14T22:54:30.379Z,8.83
2018-12-14T22:56:58.781Z,7.60
2018-12-14T22:59:27.142Z,7.80
2018-12-14T23:01:55.466Z,8.20
2018-12-14T23:04:23.878Z,6.63
2018-12-14T23:06:52.222Z,8.80
2018-12-14T23:09:20.613Z,9.00
2018-12-14T23:11:48.959Z,7.33
2018-12-14T23:14:23.950Z,9.60
2018-12-14T23:16:52.527Z,9.20
2018-12-14T23:19:21.099Z,11.50
2018-12-14T23:21:51.524Z,9.63
2018-12-14T23:24:19.847Z,7.63
2018-12-14T23:26:48.123Z,7.70
2018-12-14T23:29:16.416Z,7.53
2018-12-14T23:31:45.000Z,8.00
2018-12-14T23:34:13.388Z,9.43
2018-12-14T23:36:41.840Z,10.03
2018-12-14T23:39:10.115Z,10.37
2018-12-14T23:41:38.425Z,12.80
2018-12-14T23:44:06.791Z,10.40
2018-12-14T23:46:35.082Z,10.07
2018-12-14T23:49:03.488Z,16.23
2018-12-14T23:51:31.866Z,12.50
2018-12-14T23:54:00.219Z,14.07
2018-12-14T23:56:28.645Z,10.00
2018-12-14T23:58:57.829Z,10.37
